Shutesbury, Massachusetts
Current Conditions -  °F | °C
As of 11:05 AM on Wednesday 22 Oct 2014 (Local Time) from KORE Reporting Station
Overcast Overcast  
Wind Chill: 51°   Ceiling: 1700
Heat Index: 51°   Visibility: 10mi
Dew Point: 46°   Wind: 13mph
Humidity: 83%   Direction: 20°NNE
Pressure: 30.04"   Gusts: NA
Location:  42.46°N, 72.41°W
Report Text: KORE 221505Z AUTO 02011KT 10SM OVC017 11/08 A3004 RMK AO2 T01060078
Loading
Personal Weather Stations






























Interactive Weather Map
Tropical Storm Tracking
New forecast layout! Learn more

10-Day Weather Forecast

Advertisements
Track Severe Weather on mobile